Aérodrome :
LOGIN :

S'inscrire | Disclaimer

   EN    FR    IT 

 










Légende :    VFR   VFR Marginal   IFR   IFR Intensif   IFR Très Intensif
Visi : 
Plafond : 
>= 8 km
>= 3000ft
5 à 8 km
1000 à 3000 ft
1500m à 5 km
500 à 1000 ft
800 à 1500m
200 à 500 ft
< 800m
< 200 ft
Symboles :   Orages  Brouillard  Fortes neiges  Fortes précipitations  Vent > 20 kt
SIGMETs :   Divers  Orages  Givrage  Turbulence  Onde Orograph.  Cendres Volcan.







- Altitude de l'aérodrome : 93 ft
- Code IATA : XRY


LEJR - Jerez

DERNIER METAR :
  • 211300Z VRB07G17KT 9999 FEW045 19/01 Q1023

METARs EXPIRÉS :
  • 211230Z 08005KT 020V160 9999 FEW040 19/01 Q1024
  • 211200Z VRB07KT 9999 FEW040 19/02 Q1024
  • 211130Z VRB06KT 9999 FEW035 18/02 Q1024
  • 211100Z 06006KT 330V130 9999 FEW035 17/03 Q1024
  • 211030Z 08007KT 030V130 9999 FEW035 17/02 Q1025

TAF TAF LEJR
Valide du 21 à 12h jusqu'au 22 à 12h UTC


211100Z 2112/2212 07009KT 9999 FEW040 TX18/2212Z TN08/2204Z
Pas de NOTAMs connus pour ce terrain.



MET'MAP, la Météo Aéronautique d'un coup d'oeil ! - Copyright ORBIFLY Décembre 2007 - Disclaimer

ORBIFLY MET'MAP TEAM :

Programmation & Développement : Alexandra Zaïnal
Conception & Développement : Baudouin d'Aumeries
Co-Programmation & Développement : Marc-Olivier Méhu
Soutien technique & logistique : Manuel Goepfert

Contact : metmap@orbifly.com




SOURCES & CREDITS :

   NOAA